createdAt,value
2023-03-17T00:01:55.841Z,43.07
2023-03-17T00:04:24.778Z,42.48
2023-03-17T00:06:53.146Z,42.92
2023-03-17T00:09:22.270Z,43.38
2023-03-17T00:11:50.839Z,42.61
2023-03-17T00:14:19.742Z,42.37
2023-03-17T00:16:51.964Z,42.77
2023-03-17T00:19:32.873Z,43.10
2023-03-17T00:22:00.937Z,43.47
2023-03-17T00:24:29.322Z,43.19
2023-03-17T00:26:56.781Z,43.44
2023-03-17T00:29:24.127Z,43.62
2023-03-17T00:31:51.886Z,44.19
2023-03-17T00:34:22.285Z,43.96
2023-03-17T00:36:51.021Z,44.08
2023-03-17T00:39:18.893Z,43.95
2023-03-17T00:44:14.405Z,43.91
2023-03-17T00:46:42.378Z,44.38
2023-03-17T00:51:47.361Z,43.28
2023-03-17T00:54:15.786Z,43.55
2023-03-17T00:56:44.432Z,43.37
2023-03-17T00:59:39.377Z,43.56
2023-03-17T01:02:13.807Z,43.76
2023-03-17T01:04:45.612Z,44.18
2023-03-17T01:07:15.341Z,44.14
2023-03-17T01:09:43.944Z,44.55
2023-03-17T01:12:14.035Z,44.42
2023-03-17T01:14:41.818Z,44.56
2023-03-17T01:17:15.024Z,44.52
2023-03-17T01:19:43.171Z,44.69
2023-03-17T01:22:11.188Z,44.39
2023-03-17T01:24:39.951Z,44.41
2023-03-17T01:27:07.425Z,44.29
2023-03-17T01:29:35.429Z,44.08
2023-03-17T01:32:02.742Z,44.39
2023-03-17T01:34:30.175Z,44.48
2023-03-17T01:36:58.617Z,44.90
2023-03-17T01:39:27.424Z,44.81
2023-03-17T01:41:57.152Z,44.96
2023-03-17T01:44:25.663Z,44.72
2023-03-17T01:46:54.561Z,44.47
2023-03-17T01:49:28.220Z,44.69
2023-03-17T01:52:10.598Z,45.19
2023-03-17T01:54:41.994Z,45.24
2023-03-17T01:57:16.225Z,44.67
2023-03-17T01:59:47.030Z,44.42
2023-03-17T02:02:17.976Z,44.29
2023-03-17T02:04:45.707Z,44.36
2023-03-17T02:07:14.093Z,44.52
2023-03-17T02:09:41.995Z,44.95
2023-03-17T02:12:10.292Z,45.06
2023-03-17T02:14:37.712Z,45.00
2023-03-17T02:17:05.924Z,44.72
2023-03-17T02:19:34.123Z,45.05
2023-03-17T02:22:02.500Z,45.59
2023-03-17T02:24:43.323Z,45.14
2023-03-17T02:27:20.007Z,44.44
2023-03-17T02:29:47.687Z,44.66
2023-03-17T02:32:17.784Z,44.61
2023-03-17T02:34:48.767Z,45.13
2023-03-17T02:37:17.906Z,44.61
2023-03-17T02:39:46.534Z,44.07
2023-03-17T02:42:14.495Z,44.38
2023-03-17T02:44:42.168Z,44.82
2023-03-17T02:47:09.507Z,45.13
2023-03-17T02:49:37.820Z,44.68
2023-03-17T02:52:06.113Z,44.44
2023-03-17T02:54:34.009Z,44.49
2023-03-17T02:57:01.762Z,44.67
2023-03-17T02:59:29.503Z,45.09
2023-03-17T03:01:56.913Z,45.32
2023-03-17T03:04:24.490Z,44.37
2023-03-17T03:06:52.463Z,44.72
2023-03-17T03:09:20.550Z,45.12
2023-03-17T03:11:48.194Z,45.15
2023-03-17T03:14:16.176Z,45.05
2023-03-17T03:16:43.732Z,44.86
2023-03-17T03:19:11.573Z,44.86
2023-03-17T03:21:39.579Z,44.55
2023-03-17T03:24:07.333Z,44.70
2023-03-17T03:26:35.059Z,44.87
2023-03-17T03:29:03.432Z,45.09
2023-03-17T03:31:30.951Z,45.49
2023-03-17T03:33:58.391Z,45.54
2023-03-17T03:36:26.874Z,45.57
2023-03-17T03:38:54.284Z,45.65
2023-03-17T03:41:21.879Z,45.72
2023-03-17T03:43:49.504Z,45.72
2023-03-17T03:46:16.938Z,46.26
2023-03-17T03:48:44.443Z,46.14
2023-03-17T03:51:12.134Z,45.75
2023-03-17T03:53:39.497Z,45.98
2023-03-17T03:56:07.048Z,45.84
2023-03-17T03:58:34.799Z,45.27
2023-03-17T04:01:06.453Z,45.65
2023-03-17T04:03:34.335Z,45.62
2023-03-17T04:06:01.802Z,45.97
2023-03-17T04:08:29.551Z,46.19
2023-03-17T04:10:57.802Z,45.41
2023-03-17T04:13:25.725Z,44.89
2023-03-17T04:15:53.191Z,45.21
2023-03-17T04:18:20.836Z,45.17
2023-03-17T04:20:48.248Z,45.66
2023-03-17T04:23:15.580Z,45.41
2023-03-17T04:25:43.189Z,45.26
2023-03-17T04:28:11.896Z,44.92
2023-03-17T04:30:39.333Z,46.00
2023-03-17T04:33:07.198Z,45.92
2023-03-17T04:35:34.683Z,45.00
2023-03-17T04:38:02.704Z,45.08
2023-03-17T04:40:30.515Z,45.19
2023-03-17T04:42:58.045Z,45.39
2023-03-17T04:45:25.791Z,45.42
2023-03-17T04:47:53.462Z,45.27
2023-03-17T04:50:20.909Z,45.05
2023-03-17T04:52:48.582Z,45.02
2023-03-17T04:55:16.539Z,45.37
2023-03-17T04:57:44.191Z,45.80
2023-03-17T05:00:12.761Z,45.91
2023-03-17T05:02:41.153Z,45.98
2023-03-17T05:05:08.598Z,45.82
2023-03-17T05:07:36.115Z,45.68
2023-03-17T05:10:05.452Z,45.60
2023-03-17T05:12:33.036Z,45.85
2023-03-17T05:15:00.434Z,45.72
2023-03-17T05:17:28.142Z,45.46
2023-03-17T05:19:55.766Z,45.25
2023-03-17T05:22:23.181Z,45.85
2023-03-17T05:24:50.856Z,46.03
2023-03-17T05:27:18.287Z,46.02
2023-03-17T05:29:45.677Z,46.07
2023-03-17T05:32:13.865Z,46.01
2023-03-17T05:34:41.275Z,45.89
2023-03-17T05:37:08.702Z,46.36
2023-03-17T05:39:36.332Z,46.21
2023-03-17T05:42:03.825Z,46.03
2023-03-17T05:44:31.569Z,46.28
2023-03-17T05:46:59.730Z,46.31
2023-03-17T05:49:28.270Z,46.65
2023-03-17T05:51:55.865Z,46.73
2023-03-17T05:54:24.090Z,46.67
2023-03-17T05:56:51.457Z,46.86
2023-03-17T05:59:18.823Z,46.65
2023-03-17T06:01:46.526Z,46.04
2023-03-17T06:04:14.579Z,45.35
2023-03-17T06:06:41.904Z,45.16
2023-03-17T06:09:09.408Z,45.43
2023-03-17T06:11:38.151Z,44.84
2023-03-17T06:14:06.082Z,44.54
2023-03-17T06:16:33.533Z,44.50
2023-03-17T06:19:02.255Z,44.04
2023-03-17T06:21:29.656Z,43.30
2023-03-17T06:23:57.030Z,42.86
2023-03-17T06:26:24.694Z,42.78
2023-03-17T06:28:52.039Z,42.15
2023-03-17T06:31:19.502Z,41.70
2023-03-17T06:33:47.881Z,41.58
2023-03-17T06:36:15.605Z,41.07
2023-03-17T06:38:43.712Z,39.97
2023-03-17T06:41:11.776Z,39.77
2023-03-17T06:43:39.292Z,39.73
2023-03-17T06:46:07.430Z,38.93
2023-03-17T06:48:35.274Z,38.48
2023-03-17T06:51:02.636Z,37.57
2023-03-17T06:53:30.448Z,36.03
2023-03-17T06:55:58.071Z,36.25
2023-03-17T06:58:26.034Z,34.99
2023-03-17T07:00:54.024Z,34.79
2023-03-17T07:03:22.540Z,34.08
2023-03-17T07:05:50.024Z,33.55
2023-03-17T07:08:17.946Z,32.71
2023-03-17T07:10:48.960Z,32.78
2023-03-17T07:13:16.296Z,32.64
2023-03-17T07:15:45.229Z,32.58
2023-03-17T07:18:13.432Z,33.44
2023-03-17T07:20:41.303Z,33.69
2023-03-17T07:23:22.862Z,34.20
2023-03-17T07:25:51.505Z,33.35
2023-03-17T07:28:19.296Z,33.37
2023-03-17T07:30:48.490Z,33.59
2023-03-17T07:33:17.426Z,33.48
2023-03-17T07:35:44.806Z,32.83
2023-03-17T07:38:12.231Z,32.95
2023-03-17T07:40:39.891Z,33.09
2023-03-17T07:43:07.303Z,32.10
2023-03-17T07:45:36.049Z,31.71
2023-03-17T07:48:05.058Z,31.67
2023-03-17T07:50:35.761Z,31.63
2023-03-17T07:53:04.056Z,31.65
2023-03-17T07:55:32.816Z,30.94
2023-03-17T07:58:00.510Z,30.76
2023-03-17T08:00:29.068Z,30.65
2023-03-17T08:03:09.415Z,30.45
2023-03-17T08:05:37.683Z,30.09
2023-03-17T08:08:06.558Z,29.87
2023-03-17T08:10:34.597Z,29.61
2023-03-17T08:13:02.400Z,29.75
2023-03-17T08:15:31.228Z,29.35
2023-03-17T08:17:58.948Z,29.51
2023-03-17T08:20:26.445Z,29.49
2023-03-17T08:22:54.203Z,28.73
2023-03-17T08:25:21.951Z,28.81
2023-03-17T08:27:49.357Z,28.81
2023-03-17T08:30:17.673Z,28.83
2023-03-17T08:32:45.117Z,28.61
2023-03-17T08:35:16.018Z,28.15
2023-03-17T08:37:44.514Z,27.78
2023-03-17T08:40:18.692Z,27.85
2023-03-17T08:42:47.352Z,27.78
2023-03-17T08:45:16.503Z,27.16
2023-03-17T08:47:44.373Z,27.04
2023-03-17T08:50:18.850Z,28.07
2023-03-17T08:52:46.611Z,27.81
2023-03-17T08:55:15.322Z,27.16
2023-03-17T08:57:44.687Z,26.33
2023-03-17T09:00:16.061Z,26.34
2023-03-17T09:02:44.844Z,26.18
2023-03-17T09:05:14.016Z,25.65
2023-03-17T09:07:41.789Z,25.85
2023-03-17T09:10:10.968Z,24.91
2023-03-17T09:12:38.733Z,24.91
2023-03-17T09:15:07.653Z,23.69
2023-03-17T09:17:35.316Z,24.79
2023-03-17T09:20:02.905Z,25.29
2023-03-17T09:22:31.069Z,24.83
2023-03-17T09:24:59.036Z,25.11
2023-03-17T09:27:26.482Z,24.09
2023-03-17T09:29:53.860Z,23.98
2023-03-17T09:32:21.639Z,23.71
2023-03-17T09:34:51.424Z,23.65
2023-03-17T09:37:18.994Z,23.88
2023-03-17T09:39:46.661Z,23.21
2023-03-17T09:42:30.273Z,22.64
2023-03-17T09:45:21.700Z,23.78
2023-03-17T09:48:00.855Z,23.18
2023-03-17T09:50:32.365Z,23.08
2023-03-17T09:53:03.736Z,23.14
2023-03-17T09:55:33.732Z,22.50
2023-03-17T09:58:03.345Z,23.46
2023-03-17T10:00:31.205Z,23.71
2023-03-17T10:02:59.362Z,23.87
2023-03-17T10:05:32.172Z,22.99
2023-03-17T10:08:29.447Z,22.85
2023-03-17T10:11:26.813Z,22.66
2023-03-17T10:14:02.595Z,22.67
2023-03-17T10:16:54.655Z,22.73
2023-03-17T10:19:43.052Z,22.74
2023-03-17T10:22:31.142Z,22.40
2023-03-17T10:25:03.821Z,22.14
2023-03-17T10:27:36.224Z,22.00
2023-03-17T10:30:06.198Z,21.71
2023-03-17T10:32:37.826Z,21.62
2023-03-17T10:35:06.779Z,22.20
2023-03-17T10:37:36.594Z,21.83
2023-03-17T10:40:10.452Z,21.66
2023-03-17T10:43:10.302Z,22.18
2023-03-17T10:45:44.090Z,22.00
2023-03-17T10:48:18.793Z,21.83
2023-03-17T10:50:48.585Z,21.55
2023-03-17T10:53:28.305Z,21.25
2023-03-17T10:56:02.391Z,21.18
2023-03-17T10:58:46.990Z,21.00
2023-03-17T11:01:27.866Z,20.87
2023-03-17T11:03:56.259Z,21.36
2023-03-17T11:06:33.991Z,21.08
2023-03-17T11:09:09.583Z,20.91
2023-03-17T11:11:48.889Z,21.26
2023-03-17T11:14:19.063Z,21.17
2023-03-17T11:16:54.525Z,20.71
2023-03-17T11:19:36.814Z,21.29
2023-03-17T11:22:11.657Z,21.33
2023-03-17T11:24:48.586Z,21.41
2023-03-17T11:27:27.580Z,21.24
2023-03-17T11:30:21.124Z,20.90
2023-03-17T11:32:57.104Z,21.55
2023-03-17T11:35:52.419Z,21.15
2023-03-17T11:38:26.412Z,20.95
2023-03-17T11:41:12.266Z,21.17
2023-03-17T11:44:15.415Z,21.44
2023-03-17T11:47:02.856Z,21.01
2023-03-17T11:49:40.160Z,21.11
2023-03-17T11:52:21.934Z,21.21
2023-03-17T11:55:21.559Z,21.41
2023-03-17T11:58:05.170Z,21.14
2023-03-17T12:00:34.871Z,20.86
2023-03-17T12:03:11.491Z,21.13
2023-03-17T12:05:39.665Z,21.31
2023-03-17T12:08:40.359Z,21.29
2023-03-17T12:11:10.681Z,20.79
2023-03-17T12:13:48.513Z,20.63
2023-03-17T12:16:21.359Z,20.77
2023-03-17T12:19:25.274Z,21.22
2023-03-17T12:21:56.652Z,21.28
2023-03-17T12:24:32.561Z,20.79
2023-03-17T12:27:04.449Z,21.22
2023-03-17T12:29:53.369Z,21.14
2023-03-17T12:32:40.326Z,21.06
2023-03-17T12:35:32.064Z,21.09
2023-03-17T12:38:02.996Z,21.21
2023-03-17T12:40:51.286Z,21.41
2023-03-17T12:44:03.175Z,20.87
2023-03-17T12:46:54.961Z,20.91
2023-03-17T12:49:37.733Z,21.16
2023-03-17T12:52:34.684Z,21.23
2023-03-17T12:55:03.856Z,21.93
2023-03-17T12:57:39.895Z,21.32
2023-03-17T13:00:28.305Z,21.26
2023-03-17T13:03:22.533Z,21.23
2023-03-17T13:05:52.839Z,21.09
2023-03-17T13:08:43.834Z,20.98
2023-03-17T13:11:22.046Z,21.50
2023-03-17T13:13:49.664Z,21.56
2023-03-17T13:16:39.355Z,21.53
2023-03-17T13:19:15.331Z,21.13
2023-03-17T13:22:05.619Z,21.07
2023-03-17T13:24:49.351Z,20.85
2023-03-17T13:27:32.095Z,21.11
2023-03-17T13:30:39.922Z,21.46
2023-03-17T13:33:10.147Z,21.40
2023-03-17T13:36:05.664Z,21.09
2023-03-17T13:39:09.881Z,21.64
2023-03-17T13:42:05.564Z,21.23
2023-03-17T13:45:09.826Z,22.19
2023-03-17T13:47:42.212Z,21.94
2023-03-17T13:50:21.483Z,22.55
2023-03-17T13:52:52.976Z,21.76
2023-03-17T13:55:20.508Z,21.96
2023-03-17T13:58:08.265Z,22.41
2023-03-17T14:00:43.751Z,21.62
2023-03-17T14:03:20.688Z,22.07
2023-03-17T14:05:49.713Z,21.95
2023-03-17T14:08:33.950Z,22.04
2023-03-17T14:11:16.518Z,22.05
2023-03-17T14:13:52.549Z,21.50
2023-03-17T14:16:26.961Z,21.34
2023-03-17T14:18:59.638Z,21.72
2023-03-17T14:21:33.833Z,21.72
2023-03-17T14:24:12.194Z,21.69
2023-03-17T14:26:39.593Z,21.60
2023-03-17T14:29:07.513Z,22.03
2023-03-17T14:31:34.973Z,21.91
2023-03-17T14:34:02.436Z,22.03
2023-03-17T14:36:33.593Z,22.16
2023-03-17T14:39:01.025Z,22.13
2023-03-17T14:41:29.276Z,22.04
2023-03-17T14:43:58.728Z,22.09
2023-03-17T14:46:37.233Z,22.03
2023-03-17T14:49:15.786Z,22.06
2023-03-17T14:51:43.537Z,21.98
2023-03-17T14:54:22.822Z,21.59
2023-03-17T14:57:00.058Z,21.97
2023-03-17T14:59:33.545Z,22.37
2023-03-17T15:02:04.044Z,22.42
2023-03-17T15:04:33.935Z,22.30
2023-03-17T15:07:03.816Z,22.70
2023-03-17T15:09:34.354Z,22.85
2023-03-17T15:12:13.160Z,22.50
2023-03-17T15:14:41.042Z,22.56
2023-03-17T15:17:36.117Z,22.53
2023-03-17T15:20:14.322Z,22.74
2023-03-17T15:22:44.507Z,22.38
2023-03-17T15:25:17.853Z,22.41
2023-03-17T15:27:46.421Z,22.81
2023-03-17T15:30:14.801Z,22.85
2023-03-17T15:32:42.232Z,23.13
2023-03-17T15:35:13.880Z,23.07
2023-03-17T15:37:41.682Z,22.92
2023-03-17T15:40:09.691Z,22.95
2023-03-17T15:42:39.425Z,23.14
2023-03-17T15:45:07.885Z,23.11
2023-03-17T15:47:36.972Z,23.18
2023-03-17T15:50:23.855Z,23.23
2023-03-17T15:52:56.165Z,23.18
2023-03-17T15:55:29.693Z,22.76
2023-03-17T15:57:58.113Z,23.06
2023-03-17T16:00:29.419Z,23.06
2023-03-17T16:03:00.143Z,23.35
2023-03-17T16:05:29.828Z,23.54
2023-03-17T16:07:57.743Z,23.47
2023-03-17T16:10:27.785Z,23.51
2023-03-17T16:12:55.243Z,23.34
2023-03-17T16:15:28.021Z,23.57
2023-03-17T16:17:59.173Z,23.93
2023-03-17T16:20:31.423Z,24.02
2023-03-17T16:23:14.684Z,24.07
2023-03-17T16:25:42.734Z,23.93
2023-03-17T16:28:16.729Z,24.07
2023-03-17T16:30:44.844Z,24.04
2023-03-17T16:33:16.610Z,23.73
2023-03-17T16:35:44.291Z,24.09
2023-03-17T16:38:13.720Z,24.09
2023-03-17T16:40:41.708Z,24.19
2023-03-17T16:43:28.519Z,24.29
2023-03-17T16:46:00.424Z,24.39
2023-03-17T16:48:27.940Z,24.69
2023-03-17T16:50:56.129Z,24.89
2023-03-17T16:53:24.176Z,24.66
2023-03-17T16:55:52.481Z,24.93
2023-03-17T16:58:25.562Z,24.83
2023-03-17T17:00:57.525Z,25.15
2023-03-17T17:03:25.508Z,25.18
2023-03-17T17:05:53.169Z,25.25
2023-03-17T17:08:20.529Z,25.56
2023-03-17T17:10:48.169Z,25.88
2023-03-17T17:13:15.869Z,26.39
2023-03-17T17:15:43.494Z,26.59
2023-03-17T17:18:18.583Z,26.88
2023-03-17T17:20:46.293Z,27.80
2023-03-17T17:23:17.160Z,27.87
2023-03-17T17:25:45.323Z,27.99
2023-03-17T17:28:14.817Z,28.21
2023-03-17T17:30:45.216Z,28.48
2023-03-17T17:33:12.743Z,28.97
2023-03-17T17:35:40.575Z,29.10
2023-03-17T17:38:16.902Z,29.61
2023-03-17T17:40:44.365Z,29.42
2023-03-17T17:43:12.219Z,29.68
2023-03-17T17:45:39.872Z,30.01
2023-03-17T17:48:07.338Z,30.59
2023-03-17T17:50:35.034Z,30.89
2023-03-17T17:53:05.654Z,31.09
2023-03-17T17:55:33.894Z,31.39
2023-03-17T17:58:01.652Z,31.67
2023-03-17T18:00:30.196Z,31.89
2023-03-17T18:02:57.992Z,32.10
2023-03-17T18:05:25.676Z,32.22
2023-03-17T18:07:53.335Z,32.40
2023-03-17T18:10:24.007Z,32.61
2023-03-17T18:12:52.245Z,32.85
2023-03-17T18:15:23.480Z,33.34
2023-03-17T18:17:51.535Z,33.47
2023-03-17T18:20:21.612Z,33.49
2023-03-17T18:22:49.663Z,33.50
2023-03-17T18:25:18.056Z,33.84
2023-03-17T18:27:47.082Z,34.20
2023-03-17T18:30:23.323Z,34.23
2023-03-17T18:32:53.087Z,34.44
2023-03-17T18:35:22.288Z,34.35
2023-03-17T18:37:50.815Z,34.13
2023-03-17T18:40:32.205Z,34.44
2023-03-17T18:42:59.644Z,33.95
2023-03-17T18:45:27.371Z,33.93
2023-03-17T18:47:54.722Z,34.19
2023-03-17T18:50:22.404Z,34.46
2023-03-17T18:52:50.649Z,34.78
2023-03-17T18:55:18.333Z,34.42
2023-03-17T18:57:46.422Z,34.53
2023-03-17T19:00:16.406Z,34.73
2023-03-17T19:02:43.761Z,34.26
2023-03-17T19:05:11.622Z,34.55
2023-03-17T19:07:40.599Z,34.51
2023-03-17T19:10:09.812Z,34.56
2023-03-17T19:12:37.564Z,34.20
2023-03-17T19:15:06.665Z,33.76
2023-03-17T19:17:35.039Z,33.43
2023-03-17T19:20:02.856Z,33.40
2023-03-17T19:22:30.766Z,33.80
2023-03-17T19:24:58.544Z,33.93
2023-03-17T19:27:26.209Z,34.01
2023-03-17T19:29:53.873Z,34.09
2023-03-17T19:32:21.257Z,33.93
2023-03-17T19:34:48.926Z,33.54
2023-03-17T19:37:16.869Z,33.56
2023-03-17T19:39:44.758Z,33.86
2023-03-17T19:42:12.595Z,33.88
2023-03-17T19:44:40.527Z,33.99
2023-03-17T19:47:08.451Z,33.75
2023-03-17T19:49:37.393Z,34.13
2023-03-17T19:52:06.552Z,34.02
2023-03-17T19:54:34.418Z,34.28
2023-03-17T19:57:01.858Z,34.60
2023-03-17T19:59:29.573Z,34.73
2023-03-17T20:01:57.118Z,34.83
2023-03-17T20:04:24.954Z,34.99
2023-03-17T20:06:55.478Z,34.97
2023-03-17T20:09:26.943Z,35.01
2023-03-17T20:11:56.046Z,35.33
2023-03-17T20:14:24.015Z,35.56
2023-03-17T20:16:51.952Z,35.54
2023-03-17T20:19:19.668Z,35.78
2023-03-17T20:21:47.012Z,36.01
2023-03-17T20:24:14.817Z,36.15
2023-03-17T20:26:43.428Z,36.33
2023-03-17T20:29:13.301Z,36.60
2023-03-17T20:31:41.936Z,36.53
2023-03-17T20:34:10.131Z,36.19
2023-03-17T20:36:42.122Z,36.47
2023-03-17T20:39:13.338Z,36.58
2023-03-17T20:41:41.310Z,36.46
2023-03-17T20:44:09.016Z,36.78
2023-03-17T20:46:36.768Z,37.00
2023-03-17T20:49:05.646Z,37.29
2023-03-17T20:51:33.944Z,37.56
2023-03-17T20:54:02.428Z,37.44
2023-03-17T20:56:30.806Z,37.48
2023-03-17T20:58:58.684Z,36.86
2023-03-17T21:01:27.017Z,36.97
2023-03-17T21:03:54.412Z,36.93
2023-03-17T21:06:23.568Z,36.88
2023-03-17T21:08:52.389Z,36.76
2023-03-17T21:11:20.575Z,36.56
2023-03-17T21:13:47.958Z,37.01
2023-03-17T21:16:21.475Z,37.02
2023-03-17T21:18:48.908Z,37.02
2023-03-17T21:21:17.193Z,37.17
2023-03-17T21:23:45.404Z,37.35
2023-03-17T21:26:14.325Z,36.97
2023-03-17T21:28:42.558Z,36.75
2023-03-17T21:31:10.717Z,36.67
2023-03-17T21:33:38.384Z,36.63
2023-03-17T21:36:06.654Z,36.47
2023-03-17T21:38:34.290Z,36.44
2023-03-17T21:41:22.635Z,36.49
2023-03-17T21:43:50.485Z,36.62
2023-03-17T21:46:17.879Z,36.65
2023-03-17T21:48:45.473Z,36.80
2023-03-17T21:51:13.193Z,36.57
2023-03-17T21:53:40.787Z,36.93
2023-03-17T21:56:08.708Z,37.16
2023-03-17T21:58:36.567Z,36.97
2023-03-17T22:01:04.356Z,36.97
2023-03-17T22:03:32.825Z,37.50
2023-03-17T22:06:00.499Z,37.60
2023-03-17T22:08:28.686Z,37.82
2023-03-17T22:10:56.348Z,37.60
2023-03-17T22:13:24.021Z,37.87
2023-03-17T22:15:52.459Z,37.63
2023-03-17T22:18:20.382Z,38.06
2023-03-17T22:20:47.755Z,38.13
2023-03-17T22:23:15.207Z,38.63
2023-03-17T22:25:42.849Z,38.54
2023-03-17T22:28:10.230Z,38.93
2023-03-17T22:30:41.315Z,39.13
2023-03-17T22:33:09.419Z,39.18
2023-03-17T22:35:37.958Z,39.25
2023-03-17T22:38:06.385Z,39.36
2023-03-17T22:40:34.613Z,39.27
2023-03-17T22:43:02.777Z,39.35
2023-03-17T22:45:30.423Z,39.38
2023-03-17T22:47:58.044Z,39.66
2023-03-17T22:50:25.434Z,39.62
2023-03-17T22:52:52.793Z,39.33
2023-03-17T22:55:20.505Z,39.64
2023-03-17T22:57:47.845Z,39.13
2023-03-17T23:00:16.777Z,37.39
2023-03-17T23:02:44.954Z,36.78
2023-03-17T23:05:13.634Z,37.82
2023-03-17T23:07:50.510Z,37.93
2023-03-17T23:10:24.682Z,37.02
2023-03-17T23:12:52.158Z,36.07
2023-03-17T23:15:20.893Z,36.28
2023-03-17T23:17:48.729Z,36.03
2023-03-17T23:20:16.618Z,36.07
2023-03-17T23:22:44.327Z,36.24
2023-03-17T23:25:13.617Z,36.11
2023-03-17T23:27:41.406Z,35.85
2023-03-17T23:30:11.706Z,36.23
2023-03-17T23:32:40.661Z,36.09
2023-03-17T23:35:10.164Z,36.55
2023-03-17T23:37:37.795Z,36.14
2023-03-17T23:40:09.548Z,36.74
2023-03-17T23:42:37.015Z,36.35
2023-03-17T23:45:05.045Z,36.14
2023-03-17T23:47:32.436Z,36.13
2023-03-17T23:49:59.861Z,36.77
2023-03-17T23:52:27.458Z,36.96
2023-03-17T23:54:54.895Z,36.83
2023-03-17T23:57:22.755Z,37.26
2023-03-17T23:59:50.557Z,37.39
